Sulphur, Louisiana
Current Conditions -  °F | °C
As of 1:55 AM on Monday 24 Nov 2014 (Local Time) from KUXL Reporting Station
Clear Clear  
Wind Chill: 64°   Ceiling: Unl
Heat Index: 64°   Visibility: 10mi
Dew Point: 62°   Wind: 7mph
Humidity: 94%   Direction: 270°W
Pressure: 29.76"   Gusts: NA
Location:  30.24°N, 93.38°W
Report Text: KUXL 240755Z AUTO 27006KT 10SM CLR 18/17 A2976 RMK AO2 T01750166
Loading
Personal Weather Stations






























Interactive Weather Map New forecast layout! Learn more

10-Day Weather Forecast

Advertisements
Track Severe Weather on mobile